sensor_id;sensor_type;location;lat;lon;timestamp;temperature;humidity
64997;SHT31;51545;51.568;6.998;2023-08-24T00:00:37;18.98;90.90
64997;SHT31;51545;51.568;6.998;2023-08-24T00:03:03;19.15;90.67
64997;SHT31;51545;51.568;6.998;2023-08-24T00:05:29;19.03;90.63
64997;SHT31;51545;51.568;6.998;2023-08-24T00:07:54;19.03;90.85
64997;SHT31;51545;51.568;6.998;2023-08-24T00:10:20;19.01;90.67
64997;SHT31;51545;51.568;6.998;2023-08-24T00:12:45;19.13;90.37
64997;SHT31;51545;51.568;6.998;2023-08-24T00:15:10;19.15;89.92
64997;SHT31;51545;51.568;6.998;2023-08-24T00:17:39;19.15;89.88
64997;SHT31;51545;51.568;6.998;2023-08-24T00:20:05;19.06;90.43
64997;SHT31;51545;51.568;6.998;2023-08-24T00:22:35;19.20;89.56
64997;SHT31;51545;51.568;6.998;2023-08-24T00:25:01;19.09;89.77
64997;SHT31;51545;51.568;6.998;2023-08-24T00:27:27;19.05;89.77
64997;SHT31;51545;51.568;6.998;2023-08-24T00:29:52;19.03;89.87
64997;SHT31;51545;51.568;6.998;2023-08-24T00:32:18;19.03;89.89
64997;SHT31;51545;51.568;6.998;2023-08-24T00:34:43;18.81;90.22
64997;SHT31;51545;51.568;6.998;2023-08-24T00:37:09;18.80;90.12
64997;SHT31;51545;51.568;6.998;2023-08-24T00:39:34;18.70;90.75
64997;SHT31;51545;51.568;6.998;2023-08-24T00:42:00;18.65;90.84
64997;SHT31;51545;51.568;6.998;2023-08-24T00:44:25;18.60;91.03
64997;SHT31;51545;51.568;6.998;2023-08-24T00:46:51;18.52;91.12
64997;SHT31;51545;51.568;6.998;2023-08-24T00:49:17;18.39;91.51
64997;SHT31;51545;51.568;6.998;2023-08-24T00:51:43;18.32;91.91
64997;SHT31;51545;51.568;6.998;2023-08-24T00:54:08;18.30;92.09
64997;SHT31;51545;51.568;6.998;2023-08-24T00:56:34;18.32;91.71
64997;SHT31;51545;51.568;6.998;2023-08-24T00:58:59;18.15;92.23
64997;SHT31;51545;51.568;6.998;2023-08-24T01:01:25;18.09;92.71
64997;SHT31;51545;51.568;6.998;2023-08-24T01:03:50;18.18;92.60
64997;SHT31;51545;51.568;6.998;2023-08-24T01:06:16;18.22;92.35
64997;SHT31;51545;51.568;6.998;2023-08-24T01:08:41;18.01;92.64
64997;SHT31;51545;51.568;6.998;2023-08-24T01:16:50;17.58;93.97
64997;SHT31;51545;51.568;6.998;2023-08-24T01:19:43;17.69;93.97
64997;SHT31;51545;51.568;6.998;2023-08-24T01:22:23;17.71;94.02
64997;SHT31;51545;51.568;6.998;2023-08-24T01:25:16;17.71;94.18
64997;SHT31;51545;51.568;6.998;2023-08-24T01:27:46;17.77;93.99
64997;SHT31;51545;51.568;6.998;2023-08-24T01:30:13;17.71;94.05
64997;SHT31;51545;51.568;6.998;2023-08-24T01:32:39;17.64;94.10
64997;SHT31;51545;51.568;6.998;2023-08-24T01:35:07;17.61;93.93
64997;SHT31;51545;51.568;6.998;2023-08-24T01:37:34;17.58;94.18
64997;SHT31;51545;51.568;6.998;2023-08-24T01:40:02;17.50;94.32
64997;SHT31;51545;51.568;6.998;2023-08-24T01:42:33;17.40;94.45
64997;SHT31;51545;51.568;6.998;2023-08-24T01:45:03;17.37;94.60
64997;SHT31;51545;51.568;6.998;2023-08-24T01:47:33;17.26;95.03
64997;SHT31;51545;51.568;6.998;2023-08-24T01:50:02;17.26;94.94
64997;SHT31;51545;51.568;6.998;2023-08-24T01:52:28;17.16;95.29
64997;SHT31;51545;51.568;6.998;2023-08-24T01:54:54;17.01;95.71
64997;SHT31;51545;51.568;6.998;2023-08-24T01:57:20;16.94;96.33
64997;SHT31;51545;51.568;6.998;2023-08-24T01:59:46;17.18;96.04
64997;SHT31;51545;51.568;6.998;2023-08-24T02:02:11;17.33;95.43
64997;SHT31;51545;51.568;6.998;2023-08-24T02:04:37;17.27;95.28
64997;SHT31;51545;51.568;6.998;2023-08-24T02:07:02;17.11;95.20
64997;SHT31;51545;51.568;6.998;2023-08-24T02:09:27;17.02;95.46
64997;SHT31;51545;51.568;6.998;2023-08-24T02:11:53;16.85;96.22
64997;SHT31;51545;51.568;6.998;2023-08-24T02:14:18;16.91;96.17
64997;SHT31;51545;51.568;6.998;2023-08-24T02:16:44;17.01;96.18
64997;SHT31;51545;51.568;6.998;2023-08-24T02:19:09;16.83;96.52
64997;SHT31;51545;51.568;6.998;2023-08-24T02:21:35;16.80;96.60
64997;SHT31;51545;51.568;6.998;2023-08-24T02:24:02;16.95;96.63
64997;SHT31;51545;51.568;6.998;2023-08-24T02:26:28;16.94;96.07
64997;SHT31;51545;51.568;6.998;2023-08-24T02:28:53;17.08;96.26
64997;SHT31;51545;51.568;6.998;2023-08-24T02:31:19;17.05;95.81
64997;SHT31;51545;51.568;6.998;2023-08-24T02:33:44;16.97;95.93
64997;SHT31;51545;51.568;6.998;2023-08-24T02:36:10;16.99;96.05
64997;SHT31;51545;51.568;6.998;2023-08-24T02:38:35;17.09;96.16
64997;SHT31;51545;51.568;6.998;2023-08-24T02:41:04;17.02;96.24
64997;SHT31;51545;51.568;6.998;2023-08-24T02:43:31;17.04;96.24
64997;SHT31;51545;51.568;6.998;2023-08-24T02:46:04;16.94;96.30
64997;SHT31;51545;51.568;6.998;2023-08-24T02:48:31;16.94;96.67
64997;SHT31;51545;51.568;6.998;2023-08-24T02:50:58;17.04;96.74
64997;SHT31;51545;51.568;6.998;2023-08-24T02:53:24;17.05;96.82
64997;SHT31;51545;51.568;6.998;2023-08-24T02:55:50;17.12;96.98
64997;SHT31;51545;51.568;6.998;2023-08-24T02:58:15;17.20;96.80
64997;SHT31;51545;51.568;6.998;2023-08-24T03:00:41;17.23;96.66
64997;SHT31;51545;51.568;6.998;2023-08-24T03:03:06;17.27;96.76
64997;SHT31;51545;51.568;6.998;2023-08-24T03:05:32;17.36;96.35
64997;SHT31;51545;51.568;6.998;2023-08-24T03:07:58;17.30;96.12
64997;SHT31;51545;51.568;6.998;2023-08-24T03:10:24;17.04;97.01
64997;SHT31;51545;51.568;6.998;2023-08-24T03:12:49;17.14;96.85
64997;SHT31;51545;51.568;6.998;2023-08-24T03:15:15;17.30;96.51
64997;SHT31;51545;51.568;6.998;2023-08-24T03:17:41;17.33;96.32
64997;SHT31;51545;51.568;6.998;2023-08-24T03:20:07;17.16;96.70
64997;SHT31;51545;51.568;6.998;2023-08-24T03:22:33;17.22;96.80
64997;SHT31;51545;51.568;6.998;2023-08-24T03:24:59;17.27;97.01
64997;SHT31;51545;51.568;6.998;2023-08-24T03:27:25;17.27;96.84
64997;SHT31;51545;51.568;6.998;2023-08-24T03:29:51;17.09;97.22
64997;SHT31;51545;51.568;6.998;2023-08-24T03:32:18;17.06;97.50
64997;SHT31;51545;51.568;6.998;2023-08-24T03:34:44;17.23;97.54
64997;SHT31;51545;51.568;6.998;2023-08-24T03:37:09;17.16;97.42
64997;SHT31;51545;51.568;6.998;2023-08-24T03:39:38;17.20;97.43
64997;SHT31;51545;51.568;6.998;2023-08-24T03:42:04;17.23;97.54
64997;SHT31;51545;51.568;6.998;2023-08-24T03:44:29;17.22;97.60
64997;SHT31;51545;51.568;6.998;2023-08-24T03:46:55;17.33;97.32
64997;SHT31;51545;51.568;6.998;2023-08-24T03:49:20;17.40;96.90
64997;SHT31;51545;51.568;6.998;2023-08-24T03:51:46;17.49;96.97
64997;SHT31;51545;51.568;6.998;2023-08-24T03:54:11;17.49;96.93
64997;SHT31;51545;51.568;6.998;2023-08-24T03:56:37;17.55;96.64
64997;SHT31;51545;51.568;6.998;2023-08-24T03:59:02;17.46;96.96
64997;SHT31;51545;51.568;6.998;2023-08-24T04:01:28;17.36;97.43
64997;SHT31;51545;51.568;6.998;2023-08-24T04:03:53;17.47;97.27
64997;SHT31;51545;51.568;6.998;2023-08-24T04:06:19;17.57;96.00
64997;SHT31;51545;51.568;6.998;2023-08-24T04:08:44;17.70;96.12
64997;SHT31;51545;51.568;6.998;2023-08-24T04:11:10;17.71;95.27
64997;SHT31;51545;51.568;6.998;2023-08-24T04:13:36;17.77;95.16
64997;SHT31;51545;51.568;6.998;2023-08-24T04:16:01;17.80;95.26
64997;SHT31;51545;51.568;6.998;2023-08-24T04:18:28;17.84;95.23
64997;SHT31;51545;51.568;6.998;2023-08-24T04:20:54;17.85;95.30
64997;SHT31;51545;51.568;6.998;2023-08-24T04:23:23;17.89;96.06
64997;SHT31;51545;51.568;6.998;2023-08-24T04:25:50;17.88;96.14
64997;SHT31;51545;51.568;6.998;2023-08-24T04:28:16;17.87;96.22
64997;SHT31;51545;51.568;6.998;2023-08-24T04:30:48;17.88;96.08
64997;SHT31;51545;51.568;6.998;2023-08-24T04:33:15;17.92;96.76
64997;SHT31;51545;51.568;6.998;2023-08-24T04:35:40;17.88;97.07
64997;SHT31;51545;51.568;6.998;2023-08-24T04:38:06;17.88;96.84
64997;SHT31;51545;51.568;6.998;2023-08-24T04:40:44;17.82;96.54
64997;SHT31;51545;51.568;6.998;2023-08-24T04:43:11;17.74;96.66
64997;SHT31;51545;51.568;6.998;2023-08-24T04:45:36;17.73;96.94
64997;SHT31;51545;51.568;6.998;2023-08-24T04:48:02;17.75;97.00
64997;SHT31;51545;51.568;6.998;2023-08-24T04:50:28;17.74;97.01
64997;SHT31;51545;51.568;6.998;2023-08-24T04:52:53;17.71;97.21
64997;SHT31;51545;51.568;6.998;2023-08-24T04:55:19;17.67;97.37
64997;SHT31;51545;51.568;6.998;2023-08-24T04:57:44;17.61;97.58
64997;SHT31;51545;51.568;6.998;2023-08-24T05:00:09;17.60;97.72
64997;SHT31;51545;51.568;6.998;2023-08-24T05:02:41;17.66;97.88
64997;SHT31;51545;51.568;6.998;2023-08-24T05:05:07;17.66;97.54
64997;SHT31;51545;51.568;6.998;2023-08-24T05:07:35;17.69;97.26
64997;SHT31;51545;51.568;6.998;2023-08-24T05:10:02;17.69;97.31
64997;SHT31;51545;51.568;6.998;2023-08-24T05:12:28;17.69;96.97
64997;SHT31;51545;51.568;6.998;2023-08-24T05:14:54;17.71;96.93
64997;SHT31;51545;51.568;6.998;2023-08-24T05:17:20;17.69;96.95
64997;SHT31;51545;51.568;6.998;2023-08-24T05:19:50;17.66;96.98
64997;SHT31;51545;51.568;6.998;2023-08-24T05:22:16;17.69;97.04
64997;SHT31;51545;51.568;6.998;2023-08-24T05:24:42;17.67;97.02
64997;SHT31;51545;51.568;6.998;2023-08-24T05:27:07;17.70;97.26
64997;SHT31;51545;51.568;6.998;2023-08-24T05:29:32;17.77;97.40
64997;SHT31;51545;51.568;6.998;2023-08-24T05:31:58;17.75;97.28
64997;SHT31;51545;51.568;6.998;2023-08-24T05:34:24;17.88;97.29
64997;SHT31;51545;51.568;6.998;2023-08-24T05:36:50;17.91;97.06
64997;SHT31;51545;51.568;6.998;2023-08-24T05:39:15;17.92;96.86
64997;SHT31;51545;51.568;6.998;2023-08-24T05:41:41;17.99;96.47
64997;SHT31;51545;51.568;6.998;2023-08-24T05:44:06;18.10;96.58
64997;SHT31;51545;51.568;6.998;2023-08-24T05:46:32;18.20;96.59
64997;SHT31;51545;51.568;6.998;2023-08-24T05:48:57;18.20;95.43
64997;SHT31;51545;51.568;6.998;2023-08-24T05:51:24;18.26;95.74
64997;SHT31;51545;51.568;6.998;2023-08-24T05:53:50;18.26;96.13
64997;SHT31;51545;51.568;6.998;2023-08-24T05:56:20;18.32;95.59
64997;SHT31;51545;51.568;6.998;2023-08-24T05:58:47;18.32;96.02
64997;SHT31;51545;51.568;6.998;2023-08-24T06:01:12;18.34;96.13
64997;SHT31;51545;51.568;6.998;2023-08-24T06:03:38;18.37;96.46
64997;SHT31;51545;51.568;6.998;2023-08-24T06:06:03;18.30;96.93
64997;SHT31;51545;51.568;6.998;2023-08-24T06:08:29;18.37;96.93
64997;SHT31;51545;51.568;6.998;2023-08-24T06:10:55;18.49;97.47
64997;SHT31;51545;51.568;6.998;2023-08-24T06:13:22;18.60;97.32
64997;SHT31;51545;51.568;6.998;2023-08-24T06:15:47;18.60;94.62
64997;SHT31;51545;51.568;6.998;2023-08-24T06:18:13;18.70;93.65
64997;SHT31;51545;51.568;6.998;2023-08-24T06:20:38;18.80;93.46
64997;SHT31;51545;51.568;6.998;2023-08-24T06:23:04;18.82;93.76
64997;SHT31;51545;51.568;6.998;2023-08-24T06:25:30;18.84;93.32
64997;SHT31;51545;51.568;6.998;2023-08-24T06:27:57;19.01;93.85
64997;SHT31;51545;51.568;6.998;2023-08-24T06:30:24;19.12;94.64
64997;SHT31;51545;51.568;6.998;2023-08-24T06:32:50;19.15;92.91
64997;SHT31;51545;51.568;6.998;2023-08-24T06:35:15;19.16;92.63
64997;SHT31;51545;51.568;6.998;2023-08-24T06:37:41;19.15;92.51
64997;SHT31;51545;51.568;6.998;2023-08-24T06:40:08;19.18;92.27
64997;SHT31;51545;51.568;6.998;2023-08-24T06:42:34;19.22;92.39
64997;SHT31;51545;51.568;6.998;2023-08-24T06:44:59;19.30;92.23
64997;SHT31;51545;51.568;6.998;2023-08-24T06:47:25;19.40;91.58
64997;SHT31;51545;51.568;6.998;2023-08-24T06:49:50;19.44;91.25
64997;SHT31;51545;51.568;6.998;2023-08-24T06:52:16;19.54;91.04
64997;SHT31;51545;51.568;6.998;2023-08-24T06:54:41;19.58;90.54
64997;SHT31;51545;51.568;6.998;2023-08-24T06:57:07;19.58;91.43
64997;SHT31;51545;51.568;6.998;2023-08-24T06:59:32;19.65;90.75
64997;SHT31;51545;51.568;6.998;2023-08-24T07:01:58;19.70;90.70
64997;SHT31;51545;51.568;6.998;2023-08-24T07:04:24;19.72;90.68
64997;SHT31;51545;51.568;6.998;2023-08-24T07:06:51;19.86;90.13
64997;SHT31;51545;51.568;6.998;2023-08-24T07:09:16;19.97;89.48
64997;SHT31;51545;51.568;6.998;2023-08-24T07:11:43;20.04;89.86
64997;SHT31;51545;51.568;6.998;2023-08-24T07:14:09;20.09;90.84
64997;SHT31;51545;51.568;6.998;2023-08-24T07:16:34;20.15;89.24
64997;SHT31;51545;51.568;6.998;2023-08-24T07:19:00;20.30;88.47
64997;SHT31;51545;51.568;6.998;2023-08-24T07:21:25;20.37;88.94
64997;SHT31;51545;51.568;6.998;2023-08-24T07:23:51;20.43;88.81
64997;SHT31;51545;51.568;6.998;2023-08-24T07:26:16;20.47;87.38
64997;SHT31;51545;51.568;6.998;2023-08-24T07:28:42;20.63;85.11
64997;SHT31;51545;51.568;6.998;2023-08-24T07:31:10;20.81;84.83
64997;SHT31;51545;51.568;6.998;2023-08-24T07:33:40;20.90;83.70
64997;SHT31;51545;51.568;6.998;2023-08-24T07:36:09;21.06;83.27
64997;SHT31;51545;51.568;6.998;2023-08-24T07:38:34;21.09;83.44
64997;SHT31;51545;51.568;6.998;2023-08-24T07:41:00;21.24;83.98
64997;SHT31;51545;51.568;6.998;2023-08-24T07:43:25;21.39;84.69
64997;SHT31;51545;51.568;6.998;2023-08-24T07:45:50;21.40;83.71
64997;SHT31;51545;51.568;6.998;2023-08-24T07:48:17;21.54;82.99
64997;SHT31;51545;51.568;6.998;2023-08-24T07:50:42;21.68;83.27
64997;SHT31;51545;51.568;6.998;2023-08-24T07:53:08;21.75;81.30
64997;SHT31;51545;51.568;6.998;2023-08-24T07:55:33;21.88;81.66
64997;SHT31;51545;51.568;6.998;2023-08-24T07:57:59;21.99;81.14
64997;SHT31;51545;51.568;6.998;2023-08-24T08:00:25;22.12;81.23
64997;SHT31;51545;51.568;6.998;2023-08-24T08:02:51;22.26;79.87
64997;SHT31;51545;51.568;6.998;2023-08-24T08:05:17;22.39;80.11
64997;SHT31;51545;51.568;6.998;2023-08-24T08:07:43;22.39;79.91
64997;SHT31;51545;51.568;6.998;2023-08-24T08:10:08;22.56;80.09
64997;SHT31;51545;51.568;6.998;2023-08-24T08:12:35;22.65;80.07
64997;SHT31;51545;51.568;6.998;2023-08-24T08:15:00;22.77;79.47
64997;SHT31;51545;51.568;6.998;2023-08-24T08:17:27;22.88;77.40
64997;SHT31;51545;51.568;6.998;2023-08-24T08:19:56;22.88;76.87
64997;SHT31;51545;51.568;6.998;2023-08-24T08:22:22;22.99;76.51
64997;SHT31;51545;51.568;6.998;2023-08-24T08:24:48;23.18;76.98
64997;SHT31;51545;51.568;6.998;2023-08-24T08:27:15;23.33;76.96
64997;SHT31;51545;51.568;6.998;2023-08-24T08:29:40;23.42;77.79
64997;SHT31;51545;51.568;6.998;2023-08-24T08:32:05;23.49;77.10
64997;SHT31;51545;51.568;6.998;2023-08-24T08:34:32;23.70;77.75
64997;SHT31;51545;51.568;6.998;2023-08-24T08:36:58;23.74;76.69
64997;SHT31;51545;51.568;6.998;2023-08-24T08:39:23;23.92;76.72
64997;SHT31;51545;51.568;6.998;2023-08-24T08:41:49;23.99;76.18
64997;SHT31;51545;51.568;6.998;2023-08-24T08:44:15;24.01;74.52
64997;SHT31;51545;51.568;6.998;2023-08-24T08:46:41;24.29;75.79
64997;SHT31;51545;51.568;6.998;2023-08-24T08:49:07;24.49;74.22
64997;SHT31;51545;51.568;6.998;2023-08-24T08:51:35;24.49;73.08
64997;SHT31;51545;51.568;6.998;2023-08-24T08:54:01;24.54;74.51
64997;SHT31;51545;51.568;6.998;2023-08-24T08:56:28;24.64;72.65
64997;SHT31;51545;51.568;6.998;2023-08-24T08:58:55;24.85;73.05
64997;SHT31;51545;51.568;6.998;2023-08-24T09:01:22;25.07;73.95
64997;SHT31;51545;51.568;6.998;2023-08-24T09:03:49;25.15;72.21
64997;SHT31;51545;51.568;6.998;2023-08-24T09:06:15;25.04;72.23
64997;SHT31;51545;51.568;6.998;2023-08-24T09:08:40;25.01;74.68
64997;SHT31;51545;51.568;6.998;2023-08-24T09:11:07;25.43;74.00
64997;SHT31;51545;51.568;6.998;2023-08-24T09:13:34;25.44;71.22
64997;SHT31;51545;51.568;6.998;2023-08-24T09:16:03;25.62;71.85
64997;SHT31;51545;51.568;6.998;2023-08-24T09:18:37;25.53;69.27
64997;SHT31;51545;51.568;6.998;2023-08-24T09:21:10;25.67;71.58
64997;SHT31;51545;51.568;6.998;2023-08-24T09:23:37;25.88;69.21
64997;SHT31;51545;51.568;6.998;2023-08-24T09:26:03;26.08;68.80
64997;SHT31;51545;51.568;6.998;2023-08-24T09:28:30;26.08;70.21
64997;SHT31;51545;51.568;6.998;2023-08-24T09:30:55;26.06;69.86
64997;SHT31;51545;51.568;6.998;2023-08-24T09:33:21;26.33;67.71
64997;SHT31;51545;51.568;6.998;2023-08-24T09:35:51;26.45;69.66
64997;SHT31;51545;51.568;6.998;2023-08-24T09:38:20;26.36;68.40
64997;SHT31;51545;51.568;6.998;2023-08-24T09:40:47;26.64;68.56
64997;SHT31;51545;51.568;6.998;2023-08-24T09:43:19;26.49;64.29
64997;SHT31;51545;51.568;6.998;2023-08-24T09:45:52;26.59;68.35
64997;SHT31;51545;51.568;6.998;2023-08-24T09:48:19;26.77;69.59
64997;SHT31;51545;51.568;6.998;2023-08-24T09:50:46;26.87;69.09
64997;SHT31;51545;51.568;6.998;2023-08-24T09:53:17;26.97;70.70
64997;SHT31;51545;51.568;6.998;2023-08-24T09:56:09;26.90;70.05
64997;SHT31;51545;51.568;6.998;2023-08-24T09:58:34;26.92;67.58
64997;SHT31;51545;51.568;6.998;2023-08-24T10:01:00;26.94;66.71
64997;SHT31;51545;51.568;6.998;2023-08-24T10:03:29;27.19;67.38
64997;SHT31;51545;51.568;6.998;2023-08-24T10:05:57;27.33;68.56
64997;SHT31;51545;51.568;6.998;2023-08-24T10:09:11;27.47;67.07
64997;SHT31;51545;51.568;6.998;2023-08-24T10:11:19;27.47;65.57
64997;SHT31;51545;51.568;6.998;2023-08-24T10:13:52;27.78;64.93
64997;SHT31;51545;51.568;6.998;2023-08-24T10:16:26;27.97;64.99
64997;SHT31;51545;51.568;6.998;2023-08-24T10:18:53;28.15;64.60
64997;SHT31;51545;51.568;6.998;2023-08-24T10:21:20;28.25;64.76
64997;SHT31;51545;51.568;6.998;2023-08-24T10:23:50;28.37;64.92
64997;SHT31;51545;51.568;6.998;2023-08-24T10:26:18;28.21;64.04
64997;SHT31;51545;51.568;6.998;2023-08-24T10:28:45;28.52;64.42
64997;SHT31;51545;51.568;6.998;2023-08-24T10:31:12;28.76;64.89
64997;SHT31;51545;51.568;6.998;2023-08-24T10:33:38;28.56;65.67
64997;SHT31;51545;51.568;6.998;2023-08-24T10:36:06;28.26;63.50
64997;SHT31;51545;51.568;6.998;2023-08-24T10:38:34;28.28;65.79
64997;SHT31;51545;51.568;6.998;2023-08-24T10:41:05;28.25;65.68
64997;SHT31;51545;51.568;6.998;2023-08-24T10:43:37;27.97;65.02
64997;SHT31;51545;51.568;6.998;2023-08-24T10:46:03;28.18;66.58
64997;SHT31;51545;51.568;6.998;2023-08-24T10:51:16;28.11;67.50
64997;SHT31;51545;51.568;6.998;2023-08-24T10:53:44;28.33;65.84
64997;SHT31;51545;51.568;6.998;2023-08-24T10:56:14;28.66;66.79
64997;SHT31;51545;51.568;6.998;2023-08-24T10:58:41;28.24;65.73
64997;SHT31;51545;51.568;6.998;2023-08-24T11:01:15;28.63;66.19
64997;SHT31;51545;51.568;6.998;2023-08-24T11:03:50;28.87;65.28
64997;SHT31;51545;51.568;6.998;2023-08-24T11:06:21;28.63;65.20
64997;SHT31;51545;51.568;6.998;2023-08-24T11:08:48;28.79;68.40
64997;SHT31;51545;51.568;6.998;2023-08-24T11:11:21;28.77;68.83
64997;SHT31;51545;51.568;6.998;2023-08-24T11:16:47;28.76;65.69
64997;SHT31;51545;51.568;6.998;2023-08-24T11:19:14;28.69;65.85
64997;SHT31;51545;51.568;6.998;2023-08-24T11:21:40;28.50;66.74
64997;SHT31;51545;51.568;6.998;2023-08-24T11:24:09;28.69;65.69
64997;SHT31;51545;51.568;6.998;2023-08-24T11:26:45;28.46;64.50
64997;SHT31;51545;51.568;6.998;2023-08-24T11:29:12;28.32;63.65
64997;SHT31;51545;51.568;6.998;2023-08-24T11:31:38;28.18;62.62
64997;SHT31;51545;51.568;6.998;2023-08-24T11:34:04;28.29;65.17
64997;SHT31;51545;51.568;6.998;2023-08-24T11:36:30;28.01;64.53
64997;SHT31;51545;51.568;6.998;2023-08-24T11:38:57;28.00;65.34
64997;SHT31;51545;51.568;6.998;2023-08-24T11:41:24;27.77;67.01
64997;SHT31;51545;51.568;6.998;2023-08-24T11:43:55;27.76;68.25
64997;SHT31;51545;51.568;6.998;2023-08-24T11:46:24;27.49;66.58
64997;SHT31;51545;51.568;6.998;2023-08-24T11:48:50;27.30;65.54
64997;SHT31;51545;51.568;6.998;2023-08-24T11:51:16;27.18;63.91
64997;SHT31;51545;51.568;6.998;2023-08-24T11:53:43;27.14;65.08
64997;SHT31;51545;51.568;6.998;2023-08-24T11:56:11;26.94;64.97
64997;SHT31;51545;51.568;6.998;2023-08-24T11:58:41;26.97;65.97
64997;SHT31;51545;51.568;6.998;2023-08-24T12:01:08;26.88;66.74
64997;SHT31;51545;51.568;6.998;2023-08-24T12:03:35;27.23;65.97
64997;SHT31;51545;51.568;6.998;2023-08-24T12:06:02;27.41;65.76
64997;SHT31;51545;51.568;6.998;2023-08-24T12:08:43;27.64;66.65
64997;SHT31;51545;51.568;6.998;2023-08-24T12:11:12;27.56;65.40
64997;SHT31;51545;51.568;6.998;2023-08-24T12:13:42;27.64;64.96
64997;SHT31;51545;51.568;6.998;2023-08-24T12:16:12;27.67;64.83
64997;SHT31;51545;51.568;6.998;2023-08-24T12:18:49;27.67;64.38
64997;SHT31;51545;51.568;6.998;2023-08-24T12:21:19;27.53;64.12
64997;SHT31;51545;51.568;6.998;2023-08-24T12:24:06;27.56;65.53
64997;SHT31;51545;51.568;6.998;2023-08-24T12:26:31;27.49;66.57
64997;SHT31;51545;51.568;6.998;2023-08-24T12:29:01;27.56;65.90
64997;SHT31;51545;51.568;6.998;2023-08-24T12:31:30;27.50;66.69
64997;SHT31;51545;51.568;6.998;2023-08-24T12:34:03;27.30;65.97
64997;SHT31;51545;51.568;6.998;2023-08-24T12:36:31;27.45;68.85
64997;SHT31;51545;51.568;6.998;2023-08-24T12:39:01;27.33;68.10
64997;SHT31;51545;51.568;6.998;2023-08-24T12:41:30;27.23;66.67
64997;SHT31;51545;51.568;6.998;2023-08-24T12:43:55;27.11;66.99
64997;SHT31;51545;51.568;6.998;2023-08-24T12:46:21;27.20;69.21
64997;SHT31;51545;51.568;6.998;2023-08-24T12:48:47;27.07;67.75
64997;SHT31;51545;51.568;6.998;2023-08-24T12:51:12;26.97;69.34
64997;SHT31;51545;51.568;6.998;2023-08-24T12:53:38;26.87;69.05
64997;SHT31;51545;51.568;6.998;2023-08-24T12:56:03;26.63;69.15
64997;SHT31;51545;51.568;6.998;2023-08-24T12:58:29;26.64;69.00
64997;SHT31;51545;51.568;6.998;2023-08-24T13:00:55;26.52;70.38
64997;SHT31;51545;51.568;6.998;2023-08-24T13:03:20;26.37;71.51
64997;SHT31;51545;51.568;6.998;2023-08-24T13:05:46;26.29;70.19
64997;SHT31;51545;51.568;6.998;2023-08-24T13:08:12;26.28;72.97
64997;SHT31;51545;51.568;6.998;2023-08-24T13:10:38;26.22;71.43
64997;SHT31;51545;51.568;6.998;2023-08-24T13:13:04;26.21;71.51
64997;SHT31;51545;51.568;6.998;2023-08-24T13:15:29;26.21;74.16
64997;SHT31;51545;51.568;6.998;2023-08-24T13:17:55;26.13;71.49
64997;SHT31;51545;51.568;6.998;2023-08-24T13:20:21;26.22;71.73
64997;SHT31;51545;51.568;6.998;2023-08-24T13:22:46;26.35;74.15
64997;SHT31;51545;51.568;6.998;2023-08-24T13:25:12;26.19;71.43
64997;SHT31;51545;51.568;6.998;2023-08-24T13:27:37;26.28;71.98
64997;SHT31;51545;51.568;6.998;2023-08-24T13:30:03;26.33;72.70
64997;SHT31;51545;51.568;6.998;2023-08-24T13:32:29;26.42;71.78
64997;SHT31;51545;51.568;6.998;2023-08-24T13:34:54;26.61;71.02
64997;SHT31;51545;51.568;6.998;2023-08-24T13:37:21;26.79;71.30
64997;SHT31;51545;51.568;6.998;2023-08-24T13:39:46;26.74;70.31
64997;SHT31;51545;51.568;6.998;2023-08-24T13:42:12;26.77;70.83
64997;SHT31;51545;51.568;6.998;2023-08-24T13:44:38;26.54;70.27
64997;SHT31;51545;51.568;6.998;2023-08-24T13:47:04;26.64;70.53
64997;SHT31;51545;51.568;6.998;2023-08-24T13:49:29;26.49;71.07
64997;SHT31;51545;51.568;6.998;2023-08-24T13:51:55;26.43;71.88
64997;SHT31;51545;51.568;6.998;2023-08-24T13:54:21;26.24;73.11
64997;SHT31;51545;51.568;6.998;2023-08-24T13:56:47;26.28;72.88
64997;SHT31;51545;51.568;6.998;2023-08-24T13:59:14;26.26;73.39
64997;SHT31;51545;51.568;6.998;2023-08-24T14:01:40;26.32;73.40
64997;SHT31;51545;51.568;6.998;2023-08-24T14:04:06;26.32;72.85
64997;SHT31;51545;51.568;6.998;2023-08-24T14:06:32;26.31;76.07
64997;SHT31;51545;51.568;6.998;2023-08-24T14:09:00;26.28;74.08
64997;SHT31;51545;51.568;6.998;2023-08-24T14:11:25;26.15;75.22
64997;SHT31;51545;51.568;6.998;2023-08-24T14:13:51;26.12;73.32
64997;SHT31;51545;51.568;6.998;2023-08-24T14:16:19;25.91;72.00
64997;SHT31;51545;51.568;6.998;2023-08-24T14:18:46;25.84;71.06
64997;SHT31;51545;51.568;6.998;2023-08-24T14:21:11;25.75;71.76
64997;SHT31;51545;51.568;6.998;2023-08-24T14:23:38;25.75;71.78
64997;SHT31;51545;51.568;6.998;2023-08-24T14:26:03;25.69;71.79
64997;SHT31;51545;51.568;6.998;2023-08-24T14:31:14;25.74;73.60
64997;SHT31;51545;51.568;6.998;2023-08-24T14:33:43;25.70;73.96
64997;SHT31;51545;51.568;6.998;2023-08-24T14:36:09;25.69;74.08
64997;SHT31;51545;51.568;6.998;2023-08-24T14:38:35;25.80;75.19
64997;SHT31;51545;51.568;6.998;2023-08-24T14:41:04;25.74;74.46
64997;SHT31;51545;51.568;6.998;2023-08-24T14:43:29;25.69;73.94
64997;SHT31;51545;51.568;6.998;2023-08-24T14:45:55;25.71;74.97
64997;SHT31;51545;51.568;6.998;2023-08-24T14:48:20;25.56;75.30
64997;SHT31;51545;51.568;6.998;2023-08-24T14:50:46;25.51;76.51
64997;SHT31;51545;51.568;6.998;2023-08-24T14:53:11;25.64;75.71
64997;SHT31;51545;51.568;6.998;2023-08-24T14:55:37;25.66;77.39
64997;SHT31;51545;51.568;6.998;2023-08-24T14:58:04;25.49;75.66
64997;SHT31;51545;51.568;6.998;2023-08-24T15:00:29;25.37;76.62
64997;SHT31;51545;51.568;6.998;2023-08-24T15:02:55;25.27;76.89
64997;SHT31;51545;51.568;6.998;2023-08-24T15:05:21;25.22;78.27
64997;SHT31;51545;51.568;6.998;2023-08-24T15:07:47;25.30;78.03
64997;SHT31;51545;51.568;6.998;2023-08-24T15:10:12;25.14;79.10
64997;SHT31;51545;51.568;6.998;2023-08-24T15:12:38;25.14;77.99
64997;SHT31;51545;51.568;6.998;2023-08-24T15:15:03;25.18;78.18
64997;SHT31;51545;51.568;6.998;2023-08-24T15:17:30;25.14;78.53
64997;SHT31;51545;51.568;6.998;2023-08-24T15:19:56;25.11;78.73
64997;SHT31;51545;51.568;6.998;2023-08-24T15:22:24;25.19;78.97
64997;SHT31;51545;51.568;6.998;2023-08-24T15:24:53;25.15;79.95
64997;SHT31;51545;51.568;6.998;2023-08-24T15:27:19;25.11;78.77
64997;SHT31;51545;51.568;6.998;2023-08-24T15:29:45;25.09;79.43
64997;SHT31;51545;51.568;6.998;2023-08-24T15:32:10;24.87;79.94
64997;SHT31;51545;51.568;6.998;2023-08-24T15:34:36;24.81;80.63
64997;SHT31;51545;51.568;6.998;2023-08-24T15:37:02;24.77;81.86
64997;SHT31;51545;51.568;6.998;2023-08-24T15:39:27;24.70;80.43
64997;SHT31;51545;51.568;6.998;2023-08-24T15:41:53;24.56;80.00